Terminal Aerodrome Forecast
Issued by NWS

Home | Current Version | Previous Version | Text Only | Print | Product List | Glossary On
Versions: 1 2 3 4 5 6 7 8 9 10 11 12 13 14 15 16 17 18 19 20
000
FTUS41 KBOX 071137
TAFBAF
TAF
KBAF 071137Z 0712/0812 VRB03KT 4SM -RA BR OVC015
     FM071600 00000KT P6SM OVC010
     FM072100 00000KT P6SM BKN020
     FM072300 VRB03KT P6SM BKN080=

USA.gov is the U.S. government's official web portal to all federal, state and local government web resources and services.